Time,TemperatureF,DewpointF,PressureIn,WindDirection,WindDirectionDegrees,WindSpeedMPH,WindSpeedGustMPH,Humidity,HourlyPrecipIn,Conditions,Clouds,dailyrainin,SoftwareType,DateUTC
2013-06-27 00:07:00,72.9,62.0,29.86,NNW,336,0.0,1.0,69,0.00,,,0.00,weatherlink.com 1.10,2013-06-27 05:07:00,
2013-06-27 00:22:00,72.7,62.0,29.86,NNW,336,0.0,3.0,70,0.00,,,0.00,weatherlink.com 1.10,2013-06-27 05:22:00,
2013-06-27 00:37:00,72.4,62.0,29.86,NNW,336,0.0,4.0,70,0.00,,,0.00,weatherlink.com 1.10,2013-06-27 05:37:00,
2013-06-27 00:52:00,71.9,62.0,29.86,NNW,336,0.0,1.0,72,0.00,,,0.00,weatherlink.com 1.10,2013-06-27 05:52:00,
2013-06-27 01:07:00,71.3,62.0,29.86,NNW,336,0.0,1.0,73,0.00,,,0.00,weatherlink.com 1.10,2013-06-27 06:07:00,
2013-06-27 01:22:00,71.0,62.0,29.86,NNW,336,0.0,1.0,74,0.00,,,0.00,weatherlink.com 1.10,2013-06-27 06:22:00,
2013-06-27 01:37:00,70.8,62.0,29.87,NNW,336,0.0,2.0,74,0.00,,,0.00,weatherlink.com 1.10,2013-06-27 06:37:00,
2013-06-27 01:53:00,71.0,62.0,29.87,NW,310,0.0,1.0,74,0.00,,,0.00,weatherlink.com 1.10,2013-06-27 06:53:00,
2013-06-27 02:07:00,70.7,62.0,29.86,NW,310,0.0,1.0,75,0.00,,,0.00,weatherlink.com 1.10,2013-06-27 07:07:00,
2013-06-27 02:22:00,70.2,62.0,29.86,NW,310,0.0,1.0,76,0.00,,,0.00,weatherlink.com 1.10,2013-06-27 07:22:00,
2013-06-27 02:37:00,69.8,63.0,29.86,NW,310,0.0,1.0,78,0.00,,,0.00,weatherlink.com 1.10,2013-06-27 07:37:00,
2013-06-27 02:52:00,69.4,63.0,29.86,NW,310,0.0,1.0,80,0.00,,,0.00,weatherlink.com 1.10,2013-06-27 07:52:00,
2013-06-27 03:07:00,69.4,63.0,29.86,NW,309,0.0,5.0,81,0.00,,,0.00,weatherlink.com 1.10,2013-06-27 08:07:00,
2013-06-27 03:22:00,70.1,64.0,29.86,WNW,299,0.0,5.0,81,0.00,,,0.00,weatherlink.com 1.10,2013-06-27 08:22:00,
2013-06-27 03:37:00,70.5,64.0,29.86,WNW,298,0.0,3.0,79,0.00,,,0.00,weatherlink.com 1.10,2013-06-27 08:37:00,
2013-06-27 03:52:00,70.4,63.0,29.86,WNW,298,0.0,1.0,78,0.00,,,0.00,weatherlink.com 1.10,2013-06-27 08:52:00,
2013-06-27 04:07:00,69.7,63.0,29.86,WNW,298,0.0,0.0,78,0.00,,,0.00,weatherlink.com 1.10,2013-06-27 09:07:00,
2013-06-27 04:22:00,69.3,63.0,29.86,WNW,298,0.0,0.0,79,0.00,,,0.00,weatherlink.com 1.10,2013-06-27 09:22:00,
2013-06-27 04:37:00,68.8,63.0,29.86,WNW,298,0.0,0.0,81,0.00,,,0.00,weatherlink.com 1.10,2013-06-27 09:37:00,
2013-06-27 04:52:00,68.2,63.0,29.86,WNW,298,0.0,0.0,83,0.00,,,0.00,weatherlink.com 1.10,2013-06-27 09:52:00,
2013-06-27 05:08:00,67.8,63.0,29.86,WNW,298,0.0,1.0,85,0.00,,,0.00,weatherlink.com 1.10,2013-06-27 10:08:00,
2013-06-27 05:23:00,68.1,63.0,29.86,WNW,298,0.0,0.0,84,0.00,,,0.00,weatherlink.com 1.10,2013-06-27 10:23:00,
2013-06-27 05:38:00,68.4,63.0,29.87,WNW,295,2.0,5.0,82,0.00,,,0.00,weatherlink.com 1.10,2013-06-27 10:38:00,
2013-06-27 05:53:00,69.1,62.0,29.87,WNW,295,0.0,2.0,79,0.00,,,0.00,weatherlink.com 1.10,2013-06-27 10:53:00,
2013-06-27 06:08:00,69.4,63.0,29.88,WNW,295,0.0,3.0,79,0.00,,,0.00,weatherlink.com 1.10,2013-06-27 11:08:00,
2013-06-27 06:23:00,70.0,63.0,29.88,WNW,295,0.0,3.0,77,0.00,,,0.00,weatherlink.com 1.10,2013-06-27 11:23:00,
2013-06-27 06:38:00,70.4,63.0,29.87,WNW,296,0.0,1.0,78,0.00,,,0.00,weatherlink.com 1.10,2013-06-27 11:38:00,
2013-06-27 06:53:00,70.8,62.0,29.87,WNW,289,0.0,4.0,74,0.00,,,0.00,weatherlink.com 1.10,2013-06-27 11:53:00,
2013-06-27 07:08:00,71.6,62.0,29.88,WNW,292,3.0,7.0,72,0.00,,,0.00,weatherlink.com 1.10,2013-06-27 12:08:00,
2013-06-27 07:23:00,73.3,63.0,29.88,West,275,0.0,8.0,70,0.00,,,0.00,weatherlink.com 1.10,2013-06-27 12:23:00,
2013-06-27 07:38:00,73.8,63.0,29.87,WNW,302,0.0,5.0,69,0.00,,,0.00,weatherlink.com 1.10,2013-06-27 12:38:00,
2013-06-27 07:53:00,75.4,64.0,29.87,WNW,294,0.0,8.0,67,0.00,,,0.00,weatherlink.com 1.10,2013-06-27 12:53:00,
2013-06-27 08:08:00,75.9,64.0,29.87,WNW,288,1.0,9.0,66,0.00,,,0.00,weatherlink.com 1.10,2013-06-27 13:08:00,
2013-06-27 08:23:00,76.7,64.0,29.86,WNW,282,0.0,7.0,64,0.00,,,0.00,weatherlink.com 1.10,2013-06-27 13:23:00,
2013-06-27 08:38:00,76.8,63.0,29.86,WNW,288,0.0,10.0,63,0.00,,,0.00,weatherlink.com 1.10,2013-06-27 13:38:00,
2013-06-27 08:53:00,77.3,64.0,29.87,West,278,1.0,14.0,64,0.00,,,0.00,weatherlink.com 1.10,2013-06-27 13:53:00,
2013-06-27 09:08:00,77.7,64.0,29.87,North,349,3.0,13.0,62,0.00,,,0.00,weatherlink.com 1.10,2013-06-27 14:08:00,
2013-06-27 09:23:00,77.5,64.0,29.87,NW,323,6.0,11.0,63,0.00,,,0.00,weatherlink.com 1.10,2013-06-27 14:23:00,
2013-06-27 09:38:00,78.2,64.0,29.86,WNW,283,8.0,9.0,62,0.00,,,0.00,weatherlink.com 1.10,2013-06-27 14:38:00,
2013-06-27 09:53:00,78.3,64.0,29.87,NNW,328,3.0,10.0,61,0.00,,,0.00,weatherlink.com 1.10,2013-06-27 14:53:00,
2013-06-27 10:08:00,78.2,64.0,29.87,NW,321,4.0,12.0,62,0.00,,,0.00,weatherlink.com 1.10,2013-06-27 15:08:00,
2013-06-27 10:23:00,77.7,64.0,29.87,NW,325,3.0,8.0,63,0.00,,,0.00,weatherlink.com 1.10,2013-06-27 15:23:00,
2013-06-27 10:38:00,77.8,64.0,29.88,West,276,0.0,9.0,63,0.00,,,0.00,weatherlink.com 1.10,2013-06-27 15:38:00,
2013-06-27 10:53:00,78.0,65.0,29.87,WNW,301,3.0,5.0,64,0.00,,,0.00,weatherlink.com 1.10,2013-06-27 15:53:00,
2013-06-27 11:08:00,78.4,64.0,29.88,NNW,348,2.0,8.0,62,0.00,,,0.00,weatherlink.com 1.10,2013-06-27 16:08:00,
2013-06-27 11:23:00,79.0,64.0,29.89,NW,310,0.0,9.0,61,0.00,,,0.00,weatherlink.com 1.10,2013-06-27 16:23:00,
2013-06-27 11:38:00,80.8,63.0,29.89,NW,310,2.0,11.0,55,0.00,,,0.00,weatherlink.com 1.10,2013-06-27 16:38:00,
2013-06-27 11:53:00,82.7,63.0,29.90,NW,310,5.0,14.0,52,0.00,,,0.00,weatherlink.com 1.10,2013-06-27 16:53:00,
2013-06-27 12:08:00,83.8,64.0,29.90,NW,317,2.0,14.0,51,0.00,,,0.00,weatherlink.com 1.10,2013-06-27 17:08:00,
2013-06-27 12:23:00,83.7,61.0,29.90,SW,229,4.0,15.0,47,0.00,,,0.00,weatherlink.com 1.10,2013-06-27 17:23:00,
2013-06-27 12:38:00,83.8,60.0,29.90,NNW,342,8.0,13.0,44,0.00,,,0.00,weatherlink.com 1.10,2013-06-27 17:38:00,
2013-06-27 12:53:00,83.5,59.0,29.90,WNW,284,4.0,11.0,43,0.00,,,0.00,weatherlink.com 1.10,2013-06-27 17:53:00,
2013-06-27 13:08:00,84.3,58.0,29.90,North,355,4.0,13.0,41,0.00,,,0.00,weatherlink.com 1.10,2013-06-27 18:08:00,
2013-06-27 13:23:00,84.6,60.0,29.90,NNW,330,3.0,13.0,43,0.00,,,0.00,weatherlink.com 1.10,2013-06-27 18:23:00,
2013-06-27 13:38:00,85.4,58.0,29.90,NW,326,6.0,13.0,40,0.00,,,0.00,weatherlink.com 1.10,2013-06-27 18:38:00,
2013-06-27 13:53:00,84.9,57.0,29.89,WSW,253,4.0,15.0,38,0.00,,,0.00,weatherlink.com 1.10,2013-06-27 18:53:00,
2013-06-27 14:08:00,85.4,58.0,29.89,North,351,0.0,9.0,40,0.00,,,0.00,weatherlink.com 1.10,2013-06-27 19:08:00,
2013-06-27 14:23:00,84.1,59.0,29.90,NNW,348,4.0,16.0,42,0.00,,,0.00,weatherlink.com 1.10,2013-06-27 19:23:00,
2013-06-27 14:38:00,84.3,56.0,29.90,North,5,9.0,15.0,38,0.00,,,0.00,weatherlink.com 1.10,2013-06-27 19:38:00,
2013-06-27 14:53:00,84.9,57.0,29.89,SW,215,1.0,19.0,38,0.00,,,0.00,weatherlink.com 1.10,2013-06-27 19:53:00,
2013-06-27 15:09:00,85.9,57.0,29.89,North,350,2.0,14.0,37,0.00,,,0.00,weatherlink.com 1.10,2013-06-27 20:09:00,
2013-06-27 15:24:00,86.2,56.0,29.89,NW,307,3.0,16.0,35,0.00,,,0.00,weatherlink.com 1.10,2013-06-27 20:24:00,
2013-06-27 15:39:00,85.8,56.0,29.89,NNW,345,2.0,18.0,36,0.00,,,0.00,weatherlink.com 1.10,2013-06-27 20:39:00,
2013-06-27 15:54:00,86.2,57.0,29.88,NNW,342,3.0,12.0,37,0.00,,,0.00,weatherlink.com 1.10,2013-06-27 20:54:00,
2013-06-27 16:09:00,86.5,57.0,29.88,NW,318,5.0,19.0,36,0.00,,,0.00,weatherlink.com 1.10,2013-06-27 21:09:00,
2013-06-27 16:24:00,86.2,56.0,29.87,NW,324,2.0,13.0,35,0.00,,,0.00,weatherlink.com 1.10,2013-06-27 21:24:00,
2013-06-27 16:39:00,86.8,54.0,29.87,North,355,5.0,17.0,32,0.00,,,0.00,weatherlink.com 1.10,2013-06-27 21:39:00,
2013-06-27 16:54:00,86.0,54.0,29.87,NNW,340,4.0,20.0,33,0.00,,,0.00,weatherlink.com 1.10,2013-06-27 21:54:00,
2013-06-27 17:09:00,86.0,55.0,29.87,North,5,5.0,14.0,35,0.00,,,0.00,weatherlink.com 1.10,2013-06-27 22:09:00,
2013-06-27 17:39:00,85.8,55.0,29.87,NNW,342,10.0,14.0,35,0.00,,,0.00,weatherlink.com 1.10,2013-06-27 22:39:00,
2013-06-27 17:54:00,85.4,55.0,29.86,NNW,347,2.0,14.0,35,0.00,,,0.00,weatherlink.com 1.10,2013-06-27 22:54:00,
2013-06-27 18:09:00,85.3,55.0,29.86,NNW,340,8.0,14.0,36,0.00,,,0.00,weatherlink.com 1.10,2013-06-27 23:09:00,
2013-06-27 18:24:00,85.0,54.0,29.86,North,349,4.0,16.0,35,0.00,,,0.00,weatherlink.com 1.10,2013-06-27 23:24:00,
2013-06-27 18:39:00,84.9,55.0,29.86,NW,322,1.0,15.0,36,0.00,,,0.00,weatherlink.com 1.10,2013-06-27 23:39:00,
2013-06-27 18:54:00,84.5,55.0,29.86,NW,319,3.0,15.0,36,0.00,,,0.00,weatherlink.com 1.10,2013-06-27 23:54:00,
2013-06-27 19:09:00,84.0,54.0,29.86,NNW,344,6.0,15.0,36,0.00,,,0.00,weatherlink.com 1.10,2013-06-28 00:09:00,
2013-06-27 19:24:00,82.9,55.0,29.85,NW,317,2.0,12.0,38,0.00,,,0.00,weatherlink.com 1.10,2013-06-28 00:24:00,
2013-06-27 19:39:00,82.0,55.0,29.85,NW,315,1.0,9.0,40,0.00,,,0.00,weatherlink.com 1.10,2013-06-28 00:39:00,
2013-06-27 19:54:00,81.4,55.0,29.85,NW,326,2.0,11.0,40,0.00,,,0.00,weatherlink.com 1.10,2013-06-28 00:54:00,
2013-06-27 20:09:00,80.9,55.0,29.85,North,350,5.0,10.0,41,0.00,,,0.00,weatherlink.com 1.10,2013-06-28 01:09:00,
2013-06-27 20:24:00,80.1,55.0,29.85,NNW,345,2.0,6.0,42,0.00,,,0.00,weatherlink.com 1.10,2013-06-28 01:24:00,
2013-06-27 21:39:00,75.9,56.0,29.85,NW,326,0.0,5.0,50,0.00,,,0.00,weatherlink.com 1.10,2013-06-28 02:39:00,
2013-06-27 21:54:00,75.2,56.0,29.85,NW,326,0.0,4.0,52,0.00,,,0.00,weatherlink.com 1.10,2013-06-28 02:54:00,
2013-06-27 22:24:00,73.9,57.0,29.85,NW,321,0.0,2.0,56,0.00,,,0.00,weatherlink.com 1.10,2013-06-28 03:24:00,
2013-06-27 22:39:00,73.4,56.0,29.85,NW,321,0.0,2.0,55,0.00,,,0.00,weatherlink.com 1.10,2013-06-28 03:39:00,
2013-06-27 22:54:00,72.9,56.0,29.86,NW,321,1.0,1.0,55,0.00,,,0.00,weatherlink.com 1.10,2013-06-28 03:54:00,
2013-06-27 23:09:00,72.5,57.0,29.86,NW,321,0.0,1.0,58,0.00,,,0.00,weatherlink.com 1.10,2013-06-28 04:09:00,
2013-06-27 23:24:00,71.9,58.0,29.86,NW,321,0.0,0.0,62,0.00,,,0.00,weatherlink.com 1.10,2013-06-28 04:24:00,
2013-06-27 23:39:00,71.6,60.0,29.86,NW,321,0.0,3.0,67,0.00,,,0.00,weatherlink.com 1.10,2013-06-28 04:39:00,
2013-06-27 23:54:00,71.7,60.0,29.87,NW,320,1.0,1.0,66,0.00,,,0.00,weatherlink.com 1.10,2013-06-28 04:54:00,